sensor_id;sensor_type;location;lat;lon;timestamp;P1;durP1;ratioP1;P2;durP2;ratioP2
22476;SDS011;65006;51.698;-0.292;2023-05-02T00:01:51;3.08;;;2.20;;
22476;SDS011;65006;51.698;-0.292;2023-05-02T00:04:17;3.58;;;2.20;;
22476;SDS011;65006;51.698;-0.292;2023-05-02T00:06:43;3.53;;;2.17;;
22476;SDS011;65006;51.698;-0.292;2023-05-02T00:09:12;5.50;;;2.30;;
22476;SDS011;65006;51.698;-0.292;2023-05-02T00:11:39;3.40;;;2.17;;
22476;SDS011;65006;51.698;-0.292;2023-05-02T00:14:05;5.50;;;2.38;;
22476;SDS011;65006;51.698;-0.292;2023-05-02T00:16:31;3.25;;;2.30;;
22476;SDS011;65006;51.698;-0.292;2023-05-02T00:18:57;4.60;;;2.35;;
22476;SDS011;65006;51.698;-0.292;2023-05-02T00:21:23;3.95;;;2.40;;
22476;SDS011;65006;51.698;-0.292;2023-05-02T00:23:49;7.45;;;2.40;;
22476;SDS011;65006;51.698;-0.292;2023-05-02T00:26:16;4.35;;;2.80;;
22476;SDS011;65006;51.698;-0.292;2023-05-02T00:28:42;4.20;;;2.83;;
22476;SDS011;65006;51.698;-0.292;2023-05-02T00:31:08;3.83;;;2.40;;
22476;SDS011;65006;51.698;-0.292;2023-05-02T00:33:34;3.67;;;2.40;;
22476;SDS011;65006;51.698;-0.292;2023-05-02T00:36:00;4.22;;;2.58;;
22476;SDS011;65006;51.698;-0.292;2023-05-02T00:38:26;6.68;;;3.10;;
22476;SDS011;65006;51.698;-0.292;2023-05-02T00:40:52;3.95;;;2.58;;
22476;SDS011;65006;51.698;-0.292;2023-05-02T00:43:18;7.95;;;3.28;;
22476;SDS011;65006;51.698;-0.292;2023-05-02T00:45:45;4.47;;;2.97;;
22476;SDS011;65006;51.698;-0.292;2023-05-02T00:48:11;6.60;;;3.25;;
22476;SDS011;65006;51.698;-0.292;2023-05-02T00:50:38;4.70;;;2.38;;
22476;SDS011;65006;51.698;-0.292;2023-05-02T00:53:05;5.93;;;3.00;;
22476;SDS011;65006;51.698;-0.292;2023-05-02T00:55:31;5.28;;;3.33;;
22476;SDS011;65006;51.698;-0.292;2023-05-02T00:58:04;5.65;;;2.70;;
22476;SDS011;65006;51.698;-0.292;2023-05-02T01:03:40;4.78;;;3.00;;
22476;SDS011;65006;51.698;-0.292;2023-05-02T01:11:43;13.85;;;3.95;;
22476;SDS011;65006;51.698;-0.292;2023-05-02T01:14:13;9.70;;;4.60;;
22476;SDS011;65006;51.698;-0.292;2023-05-02T01:16:40;6.80;;;3.58;;
22476;SDS011;65006;51.698;-0.292;2023-05-02T01:19:08;6.03;;;3.40;;
22476;SDS011;65006;51.698;-0.292;2023-05-02T01:21:37;7.00;;;3.90;;
22476;SDS011;65006;51.698;-0.292;2023-05-02T01:26:57;10.13;;;3.72;;
22476;SDS011;65006;51.698;-0.292;2023-05-02T01:29:24;8.88;;;3.72;;
22476;SDS011;65006;51.698;-0.292;2023-05-02T01:31:52;13.15;;;4.75;;
22476;SDS011;65006;51.698;-0.292;2023-05-02T01:34:20;8.18;;;4.03;;
22476;SDS011;65006;51.698;-0.292;2023-05-02T01:36:46;9.88;;;4.00;;
22476;SDS011;65006;51.698;-0.292;2023-05-02T01:39:15;7.90;;;4.20;;
22476;SDS011;65006;51.698;-0.292;2023-05-02T01:41:43;14.05;;;4.50;;
22476;SDS011;65006;51.698;-0.292;2023-05-02T01:44:10;8.43;;;4.18;;
22476;SDS011;65006;51.698;-0.292;2023-05-02T01:46:38;12.20;;;3.67;;
22476;SDS011;65006;51.698;-0.292;2023-05-02T01:49:05;12.95;;;5.22;;
22476;SDS011;65006;51.698;-0.292;2023-05-02T01:51:32;9.38;;;4.10;;
22476;SDS011;65006;51.698;-0.292;2023-05-02T01:54:00;9.90;;;4.22;;
22476;SDS011;65006;51.698;-0.292;2023-05-02T01:56:28;16.45;;;3.90;;
22476;SDS011;65006;51.698;-0.292;2023-05-02T01:58:56;8.70;;;4.10;;
22476;SDS011;65006;51.698;-0.292;2023-05-02T02:01:22;10.32;;;4.47;;
22476;SDS011;65006;51.698;-0.292;2023-05-02T02:03:52;6.72;;;3.50;;
22476;SDS011;65006;51.698;-0.292;2023-05-02T02:06:19;8.30;;;4.38;;
22476;SDS011;65006;51.698;-0.292;2023-05-02T02:08:46;11.63;;;3.88;;
22476;SDS011;65006;51.698;-0.292;2023-05-02T02:11:12;11.40;;;4.00;;
22476;SDS011;65006;51.698;-0.292;2023-05-02T02:13:44;6.45;;;3.83;;
22476;SDS011;65006;51.698;-0.292;2023-05-02T02:16:15;8.98;;;3.85;;
22476;SDS011;65006;51.698;-0.292;2023-05-02T02:18:44;6.45;;;3.67;;
22476;SDS011;65006;51.698;-0.292;2023-05-02T02:21:10;7.03;;;3.38;;
22476;SDS011;65006;51.698;-0.292;2023-05-02T02:26:03;5.68;;;3.60;;
22476;SDS011;65006;51.698;-0.292;2023-05-02T02:28:30;6.22;;;2.97;;
22476;SDS011;65006;51.698;-0.292;2023-05-02T02:33:23;8.55;;;3.38;;
22476;SDS011;65006;51.698;-0.292;2023-05-02T02:35:52;6.13;;;3.42;;
22476;SDS011;65006;51.698;-0.292;2023-05-02T02:40:54;8.00;;;3.50;;
22476;SDS011;65006;51.698;-0.292;2023-05-02T02:45:48;10.48;;;3.17;;
22476;SDS011;65006;51.698;-0.292;2023-05-02T02:48:18;4.15;;;3.00;;
22476;SDS011;65006;51.698;-0.292;2023-05-02T02:53:35;10.30;;;3.55;;
22476;SDS011;65006;51.698;-0.292;2023-05-02T02:56:06;7.78;;;3.30;;
22476;SDS011;65006;51.698;-0.292;2023-05-02T03:01:09;10.43;;;3.40;;
22476;SDS011;65006;51.698;-0.292;2023-05-02T03:03:36;11.40;;;3.42;;
22476;SDS011;65006;51.698;-0.292;2023-05-02T03:06:04;5.72;;;3.22;;
22476;SDS011;65006;51.698;-0.292;2023-05-02T03:08:40;10.40;;;4.18;;
22476;SDS011;65006;51.698;-0.292;2023-05-02T03:11:07;12.02;;;3.38;;
22476;SDS011;65006;51.698;-0.292;2023-05-02T03:13:33;9.13;;;3.20;;
22476;SDS011;65006;51.698;-0.292;2023-05-02T03:18:44;5.57;;;2.88;;
22476;SDS011;65006;51.698;-0.292;2023-05-02T03:21:10;5.53;;;3.40;;
22476;SDS011;65006;51.698;-0.292;2023-05-02T03:23:36;8.15;;;3.42;;
22476;SDS011;65006;51.698;-0.292;2023-05-02T03:26:02;12.98;;;3.53;;
22476;SDS011;65006;51.698;-0.292;2023-05-02T03:28:28;8.52;;;3.15;;
22476;SDS011;65006;51.698;-0.292;2023-05-02T03:30:54;8.10;;;2.78;;
22476;SDS011;65006;51.698;-0.292;2023-05-02T03:33:20;6.72;;;2.90;;
22476;SDS011;65006;51.698;-0.292;2023-05-02T03:35:46;8.13;;;2.97;;
22476;SDS011;65006;51.698;-0.292;2023-05-02T03:38:12;5.38;;;2.92;;
22476;SDS011;65006;51.698;-0.292;2023-05-02T03:40:38;4.55;;;2.70;;
22476;SDS011;65006;51.698;-0.292;2023-05-02T03:43:04;5.80;;;2.65;;
22476;SDS011;65006;51.698;-0.292;2023-05-02T03:45:30;3.20;;;2.53;;
22476;SDS011;65006;51.698;-0.292;2023-05-02T03:47:56;5.07;;;2.75;;
22476;SDS011;65006;51.698;-0.292;2023-05-02T03:50:22;7.70;;;2.80;;
22476;SDS011;65006;51.698;-0.292;2023-05-02T03:55:14;5.20;;;2.85;;
22476;SDS011;65006;51.698;-0.292;2023-05-02T03:57:40;4.40;;;2.35;;
22476;SDS011;65006;51.698;-0.292;2023-05-02T04:00:07;6.72;;;2.70;;
22476;SDS011;65006;51.698;-0.292;2023-05-02T04:02:33;7.57;;;2.65;;
22476;SDS011;65006;51.698;-0.292;2023-05-02T04:04:59;3.95;;;2.60;;
22476;SDS011;65006;51.698;-0.292;2023-05-02T04:07:25;4.65;;;2.60;;
22476;SDS011;65006;51.698;-0.292;2023-05-02T04:09:51;11.07;;;3.08;;
22476;SDS011;65006;51.698;-0.292;2023-05-02T04:12:17;5.40;;;2.80;;
22476;SDS011;65006;51.698;-0.292;2023-05-02T04:14:43;7.50;;;2.92;;
22476;SDS011;65006;51.698;-0.292;2023-05-02T04:17:09;4.20;;;2.60;;
22476;SDS011;65006;51.698;-0.292;2023-05-02T04:19:35;5.25;;;2.85;;
22476;SDS011;65006;51.698;-0.292;2023-05-02T04:22:01;7.13;;;3.28;;
22476;SDS011;65006;51.698;-0.292;2023-05-02T04:24:27;6.15;;;3.00;;
22476;SDS011;65006;51.698;-0.292;2023-05-02T04:26:53;10.65;;;3.30;;
22476;SDS011;65006;51.698;-0.292;2023-05-02T04:29:19;6.10;;;2.90;;
22476;SDS011;65006;51.698;-0.292;2023-05-02T04:31:45;3.55;;;2.88;;
22476;SDS011;65006;51.698;-0.292;2023-05-02T04:34:12;9.38;;;3.30;;
22476;SDS011;65006;51.698;-0.292;2023-05-02T04:36:38;5.30;;;2.80;;
22476;SDS011;65006;51.698;-0.292;2023-05-02T04:39:05;7.60;;;3.65;;
22476;SDS011;65006;51.698;-0.292;2023-05-02T04:43:57;7.55;;;3.20;;
22476;SDS011;65006;51.698;-0.292;2023-05-02T04:46:23;14.13;;;3.45;;
22476;SDS011;65006;51.698;-0.292;2023-05-02T04:48:49;6.97;;;3.90;;
22476;SDS011;65006;51.698;-0.292;2023-05-02T04:51:15;7.40;;;3.20;;
22476;SDS011;65006;51.698;-0.292;2023-05-02T04:53:43;7.63;;;3.25;;
22476;SDS011;65006;51.698;-0.292;2023-05-02T04:56:09;9.20;;;3.00;;
22476;SDS011;65006;51.698;-0.292;2023-05-02T04:58:35;15.55;;;3.20;;
22476;SDS011;65006;51.698;-0.292;2023-05-02T05:01:01;9.90;;;3.40;;
22476;SDS011;65006;51.698;-0.292;2023-05-02T05:03:27;6.80;;;3.45;;
22476;SDS011;65006;51.698;-0.292;2023-05-02T05:05:57;10.15;;;3.28;;
22476;SDS011;65006;51.698;-0.292;2023-05-02T05:08:23;10.57;;;3.97;;
22476;SDS011;65006;51.698;-0.292;2023-05-02T05:10:49;13.05;;;4.07;;
22476;SDS011;65006;51.698;-0.292;2023-05-02T05:13:16;6.63;;;3.58;;
22476;SDS011;65006;51.698;-0.292;2023-05-02T05:15:42;10.05;;;4.15;;
22476;SDS011;65006;51.698;-0.292;2023-05-02T05:18:08;9.48;;;4.30;;
22476;SDS011;65006;51.698;-0.292;2023-05-02T05:20:34;9.95;;;3.70;;
22476;SDS011;65006;51.698;-0.292;2023-05-02T05:23:00;10.60;;;4.00;;
22476;SDS011;65006;51.698;-0.292;2023-05-02T05:25:26;8.50;;;3.33;;
22476;SDS011;65006;51.698;-0.292;2023-05-02T05:27:52;12.18;;;4.10;;
22476;SDS011;65006;51.698;-0.292;2023-05-02T05:30:19;8.23;;;3.42;;
22476;SDS011;65006;51.698;-0.292;2023-05-02T05:32:46;8.05;;;3.20;;
22476;SDS011;65006;51.698;-0.292;2023-05-02T05:35:12;8.63;;;3.67;;
22476;SDS011;65006;51.698;-0.292;2023-05-02T05:37:38;6.30;;;3.90;;
22476;SDS011;65006;51.698;-0.292;2023-05-02T05:40:05;6.97;;;3.70;;
22476;SDS011;65006;51.698;-0.292;2023-05-02T05:42:31;11.13;;;3.55;;
22476;SDS011;65006;51.698;-0.292;2023-05-02T05:44:57;12.30;;;3.60;;
22476;SDS011;65006;51.698;-0.292;2023-05-02T05:47:23;11.10;;;3.45;;
22476;SDS011;65006;51.698;-0.292;2023-05-02T05:49:53;6.68;;;2.80;;
22476;SDS011;65006;51.698;-0.292;2023-05-02T05:52:19;6.97;;;3.00;;
22476;SDS011;65006;51.698;-0.292;2023-05-02T05:54:45;12.55;;;3.40;;
22476;SDS011;65006;51.698;-0.292;2023-05-02T05:57:11;8.10;;;3.50;;
22476;SDS011;65006;51.698;-0.292;2023-05-02T05:59:37;7.28;;;3.13;;
22476;SDS011;65006;51.698;-0.292;2023-05-02T06:02:03;12.00;;;3.60;;
22476;SDS011;65006;51.698;-0.292;2023-05-02T06:04:30;7.68;;;3.17;;
22476;SDS011;65006;51.698;-0.292;2023-05-02T06:06:56;11.70;;;3.95;;
22476;SDS011;65006;51.698;-0.292;2023-05-02T06:09:22;10.00;;;4.13;;
22476;SDS011;65006;51.698;-0.292;2023-05-02T06:11:48;11.57;;;4.07;;
22476;SDS011;65006;51.698;-0.292;2023-05-02T06:14:14;10.75;;;3.90;;
22476;SDS011;65006;51.698;-0.292;2023-05-02T06:16:40;9.57;;;3.50;;
22476;SDS011;65006;51.698;-0.292;2023-05-02T06:19:06;10.02;;;3.67;;
22476;SDS011;65006;51.698;-0.292;2023-05-02T06:21:32;11.25;;;4.25;;
22476;SDS011;65006;51.698;-0.292;2023-05-02T06:23:58;7.63;;;3.92;;
22476;SDS011;65006;51.698;-0.292;2023-05-02T06:26:24;10.32;;;3.90;;
22476;SDS011;65006;51.698;-0.292;2023-05-02T06:28:50;13.30;;;4.28;;
22476;SDS011;65006;51.698;-0.292;2023-05-02T06:31:16;14.18;;;4.55;;
22476;SDS011;65006;51.698;-0.292;2023-05-02T06:33:42;11.77;;;5.15;;
22476;SDS011;65006;51.698;-0.292;2023-05-02T06:36:08;11.30;;;5.57;;
22476;SDS011;65006;51.698;-0.292;2023-05-02T06:38:34;11.93;;;4.63;;
22476;SDS011;65006;51.698;-0.292;2023-05-02T06:41:00;10.35;;;4.80;;
22476;SDS011;65006;51.698;-0.292;2023-05-02T06:43:26;12.45;;;5.50;;
22476;SDS011;65006;51.698;-0.292;2023-05-02T06:45:52;10.32;;;4.80;;
22476;SDS011;65006;51.698;-0.292;2023-05-02T06:48:20;13.00;;;5.00;;
22476;SDS011;65006;51.698;-0.292;2023-05-02T06:50:46;15.10;;;4.78;;
22476;SDS011;65006;51.698;-0.292;2023-05-02T06:53:12;12.50;;;4.57;;
22476;SDS011;65006;51.698;-0.292;2023-05-02T06:55:39;9.95;;;4.88;;
22476;SDS011;65006;51.698;-0.292;2023-05-02T06:58:06;11.55;;;5.40;;
22476;SDS011;65006;51.698;-0.292;2023-05-02T07:00:32;10.85;;;5.00;;
22476;SDS011;65006;51.698;-0.292;2023-05-02T07:02:58;9.95;;;5.10;;
22476;SDS011;65006;51.698;-0.292;2023-05-02T07:05:24;14.93;;;5.35;;
22476;SDS011;65006;51.698;-0.292;2023-05-02T07:07:50;11.50;;;4.80;;
22476;SDS011;65006;51.698;-0.292;2023-05-02T07:10:16;10.45;;;4.43;;
22476;SDS011;65006;51.698;-0.292;2023-05-02T07:12:42;12.63;;;4.63;;
22476;SDS011;65006;51.698;-0.292;2023-05-02T07:15:08;10.95;;;4.65;;
22476;SDS011;65006;51.698;-0.292;2023-05-02T07:17:34;11.07;;;4.30;;
22476;SDS011;65006;51.698;-0.292;2023-05-02T07:20:00;13.38;;;4.97;;
22476;SDS011;65006;51.698;-0.292;2023-05-02T07:22:26;7.10;;;3.80;;
22476;SDS011;65006;51.698;-0.292;2023-05-02T07:24:59;12.43;;;4.68;;
22476;SDS011;65006;51.698;-0.292;2023-05-02T07:27:25;7.20;;;3.95;;
22476;SDS011;65006;51.698;-0.292;2023-05-02T07:29:51;8.50;;;4.57;;
22476;SDS011;65006;51.698;-0.292;2023-05-02T07:32:18;8.73;;;4.60;;
22476;SDS011;65006;51.698;-0.292;2023-05-02T07:34:45;7.80;;;3.90;;
22476;SDS011;65006;51.698;-0.292;2023-05-02T07:37:11;9.02;;;4.90;;
22476;SDS011;65006;51.698;-0.292;2023-05-02T07:39:37;7.68;;;3.72;;
22476;SDS011;65006;51.698;-0.292;2023-05-02T07:42:03;7.90;;;3.90;;
22476;SDS011;65006;51.698;-0.292;2023-05-02T07:44:31;8.73;;;4.00;;
22476;SDS011;65006;51.698;-0.292;2023-05-02T07:47:00;11.95;;;3.92;;
22476;SDS011;65006;51.698;-0.292;2023-05-02T07:49:27;10.27;;;4.50;;
22476;SDS011;65006;51.698;-0.292;2023-05-02T07:51:53;10.73;;;4.20;;
22476;SDS011;65006;51.698;-0.292;2023-05-02T07:54:20;9.05;;;3.72;;
22476;SDS011;65006;51.698;-0.292;2023-05-02T07:56:47;8.35;;;3.33;;
22476;SDS011;65006;51.698;-0.292;2023-05-02T07:59:13;6.47;;;2.67;;
22476;SDS011;65006;51.698;-0.292;2023-05-02T08:01:39;9.88;;;3.30;;
22476;SDS011;65006;51.698;-0.292;2023-05-02T08:04:06;11.65;;;3.35;;
22476;SDS011;65006;51.698;-0.292;2023-05-02T08:06:32;6.82;;;3.08;;
22476;SDS011;65006;51.698;-0.292;2023-05-02T08:08:58;11.50;;;3.60;;
22476;SDS011;65006;51.698;-0.292;2023-05-02T08:11:24;9.35;;;4.50;;
22476;SDS011;65006;51.698;-0.292;2023-05-02T08:13:51;9.60;;;3.58;;
22476;SDS011;65006;51.698;-0.292;2023-05-02T08:16:17;10.52;;;3.08;;
22476;SDS011;65006;51.698;-0.292;2023-05-02T08:18:43;12.98;;;3.20;;
22476;SDS011;65006;51.698;-0.292;2023-05-02T08:21:10;5.03;;;2.88;;
22476;SDS011;65006;51.698;-0.292;2023-05-02T08:23:36;10.75;;;2.90;;
22476;SDS011;65006;51.698;-0.292;2023-05-02T08:26:02;8.95;;;3.33;;
22476;SDS011;65006;51.698;-0.292;2023-05-02T08:28:28;6.75;;;2.80;;
22476;SDS011;65006;51.698;-0.292;2023-05-02T08:30:55;6.57;;;2.75;;
22476;SDS011;65006;51.698;-0.292;2023-05-02T08:33:21;11.32;;;3.20;;
22476;SDS011;65006;51.698;-0.292;2023-05-02T08:35:48;7.70;;;2.70;;
22476;SDS011;65006;51.698;-0.292;2023-05-02T08:38:14;7.55;;;2.75;;
22476;SDS011;65006;51.698;-0.292;2023-05-02T08:40:41;6.78;;;2.22;;
22476;SDS011;65006;51.698;-0.292;2023-05-02T08:43:07;4.85;;;2.28;;
22476;SDS011;65006;51.698;-0.292;2023-05-02T08:45:33;6.55;;;2.00;;
22476;SDS011;65006;51.698;-0.292;2023-05-02T08:48:06;5.40;;;2.22;;
22476;SDS011;65006;51.698;-0.292;2023-05-02T08:50:41;4.88;;;2.33;;
22476;SDS011;65006;51.698;-0.292;2023-05-02T08:53:09;2.95;;;2.15;;
22476;SDS011;65006;51.698;-0.292;2023-05-02T08:55:36;3.20;;;1.83;;
22476;SDS011;65006;51.698;-0.292;2023-05-02T08:58:05;5.47;;;1.88;;
22476;SDS011;65006;51.698;-0.292;2023-05-02T09:05:24;3.87;;;2.20;;
22476;SDS011;65006;51.698;-0.292;2023-05-02T09:07:50;5.57;;;2.40;;
22476;SDS011;65006;51.698;-0.292;2023-05-02T09:10:16;8.82;;;2.63;;
22476;SDS011;65006;51.698;-0.292;2023-05-02T09:12:42;6.28;;;3.17;;
22476;SDS011;65006;51.698;-0.292;2023-05-02T09:15:09;9.30;;;2.97;;
22476;SDS011;65006;51.698;-0.292;2023-05-02T09:17:42;11.60;;;3.05;;
22476;SDS011;65006;51.698;-0.292;2023-05-02T09:20:09;6.90;;;2.35;;
22476;SDS011;65006;51.698;-0.292;2023-05-02T09:22:35;9.40;;;2.95;;
22476;SDS011;65006;51.698;-0.292;2023-05-02T09:25:02;10.23;;;2.50;;
22476;SDS011;65006;51.698;-0.292;2023-05-02T09:27:29;5.53;;;2.97;;
22476;SDS011;65006;51.698;-0.292;2023-05-02T09:32:43;8.80;;;2.22;;
22476;SDS011;65006;51.698;-0.292;2023-05-02T09:35:10;3.80;;;2.40;;
22476;SDS011;65006;51.698;-0.292;2023-05-02T09:37:37;9.82;;;3.00;;
22476;SDS011;65006;51.698;-0.292;2023-05-02T09:40:06;11.52;;;2.45;;
22476;SDS011;65006;51.698;-0.292;2023-05-02T09:42:36;5.60;;;2.30;;
22476;SDS011;65006;51.698;-0.292;2023-05-02T09:45:02;3.63;;;2.45;;
22476;SDS011;65006;51.698;-0.292;2023-05-02T09:47:28;4.80;;;2.55;;
22476;SDS011;65006;51.698;-0.292;2023-05-02T09:49:54;5.72;;;2.55;;
22476;SDS011;65006;51.698;-0.292;2023-05-02T09:52:20;4.70;;;2.67;;
22476;SDS011;65006;51.698;-0.292;2023-05-02T09:54:46;11.57;;;2.58;;
22476;SDS011;65006;51.698;-0.292;2023-05-02T09:57:16;7.28;;;2.13;;
22476;SDS011;65006;51.698;-0.292;2023-05-02T09:59:52;5.20;;;2.00;;
22476;SDS011;65006;51.698;-0.292;2023-05-02T10:02:18;8.27;;;2.35;;
22476;SDS011;65006;51.698;-0.292;2023-05-02T10:07:11;8.65;;;3.10;;
22476;SDS011;65006;51.698;-0.292;2023-05-02T10:09:42;6.40;;;2.95;;
22476;SDS011;65006;51.698;-0.292;2023-05-02T10:12:08;8.57;;;2.38;;
22476;SDS011;65006;51.698;-0.292;2023-05-02T10:14:38;6.75;;;2.85;;
22476;SDS011;65006;51.698;-0.292;2023-05-02T10:17:12;7.38;;;2.33;;
22476;SDS011;65006;51.698;-0.292;2023-05-02T10:22:40;10.95;;;2.50;;
22476;SDS011;65006;51.698;-0.292;2023-05-02T10:25:08;5.88;;;2.20;;
22476;SDS011;65006;51.698;-0.292;2023-05-02T10:27:35;8.27;;;2.53;;
22476;SDS011;65006;51.698;-0.292;2023-05-02T10:30:01;4.88;;;2.15;;
22476;SDS011;65006;51.698;-0.292;2023-05-02T10:34:55;7.72;;;2.35;;
22476;SDS011;65006;51.698;-0.292;2023-05-02T10:37:22;6.75;;;2.13;;
22476;SDS011;65006;51.698;-0.292;2023-05-02T10:39:49;12.57;;;2.10;;
22476;SDS011;65006;51.698;-0.292;2023-05-02T10:42:15;10.73;;;1.98;;
22476;SDS011;65006;51.698;-0.292;2023-05-02T10:44:42;5.78;;;1.88;;
22476;SDS011;65006;51.698;-0.292;2023-05-02T10:47:24;11.10;;;1.95;;
22476;SDS011;65006;51.698;-0.292;2023-05-02T10:49:51;3.53;;;2.05;;
22476;SDS011;65006;51.698;-0.292;2023-05-02T10:52:25;13.25;;;2.25;;
22476;SDS011;65006;51.698;-0.292;2023-05-02T11:02:50;5.75;;;2.42;;
22476;SDS011;65006;51.698;-0.292;2023-05-02T11:05:16;9.00;;;2.75;;
22476;SDS011;65006;51.698;-0.292;2023-05-02T11:07:43;11.10;;;1.98;;
22476;SDS011;65006;51.698;-0.292;2023-05-02T11:15:10;8.25;;;2.00;;
22476;SDS011;65006;51.698;-0.292;2023-05-02T11:20:21;12.48;;;2.17;;
22476;SDS011;65006;51.698;-0.292;2023-05-02T11:22:48;4.90;;;2.35;;
22476;SDS011;65006;51.698;-0.292;2023-05-02T11:25:33;5.60;;;2.20;;
22476;SDS011;65006;51.698;-0.292;2023-05-02T11:28:00;10.07;;;2.40;;
22476;SDS011;65006;51.698;-0.292;2023-05-02T11:30:38;9.73;;;1.92;;
22476;SDS011;65006;51.698;-0.292;2023-05-02T11:35:30;5.38;;;1.70;;
22476;SDS011;65006;51.698;-0.292;2023-05-02T11:40:28;3.80;;;1.90;;
22476;SDS011;65006;51.698;-0.292;2023-05-02T11:42:55;3.08;;;1.60;;
22476;SDS011;65006;51.698;-0.292;2023-05-02T11:45:21;7.30;;;2.17;;
22476;SDS011;65006;51.698;-0.292;2023-05-02T11:47:48;9.07;;;1.85;;
22476;SDS011;65006;51.698;-0.292;2023-05-02T11:50:15;4.90;;;1.60;;
22476;SDS011;65006;51.698;-0.292;2023-05-02T11:55:11;6.40;;;1.65;;
22476;SDS011;65006;51.698;-0.292;2023-05-02T11:57:38;5.00;;;1.83;;
22476;SDS011;65006;51.698;-0.292;2023-05-02T12:00:04;3.50;;;1.67;;
22476;SDS011;65006;51.698;-0.292;2023-05-02T12:04:56;5.60;;;1.52;;
22476;SDS011;65006;51.698;-0.292;2023-05-02T12:07:32;6.13;;;1.73;;
22476;SDS011;65006;51.698;-0.292;2023-05-02T12:09:58;4.45;;;2.00;;
22476;SDS011;65006;51.698;-0.292;2023-05-02T12:12:24;3.58;;;1.42;;
22476;SDS011;65006;51.698;-0.292;2023-05-02T12:14:52;6.40;;;1.67;;
22476;SDS011;65006;51.698;-0.292;2023-05-02T12:19:45;5.07;;;1.73;;
22476;SDS011;65006;51.698;-0.292;2023-05-02T12:22:12;5.78;;;1.80;;
22476;SDS011;65006;51.698;-0.292;2023-05-02T12:24:39;8.00;;;1.65;;
22476;SDS011;65006;51.698;-0.292;2023-05-02T12:27:11;9.68;;;2.63;;
22476;SDS011;65006;51.698;-0.292;2023-05-02T12:32:04;6.35;;;1.65;;
22476;SDS011;65006;51.698;-0.292;2023-05-02T12:34:31;9.85;;;1.80;;
22476;SDS011;65006;51.698;-0.292;2023-05-02T12:36:57;6.80;;;1.38;;
22476;SDS011;65006;51.698;-0.292;2023-05-02T12:39:36;2.40;;;1.38;;
22476;SDS011;65006;51.698;-0.292;2023-05-02T12:42:09;19.92;;;2.60;;
22476;SDS011;65006;51.698;-0.292;2023-05-02T12:44:36;6.93;;;2.58;;
22476;SDS011;65006;51.698;-0.292;2023-05-02T12:47:05;9.57;;;1.33;;
22476;SDS011;65006;51.698;-0.292;2023-05-02T12:49:47;10.52;;;1.77;;
22476;SDS011;65006;51.698;-0.292;2023-05-02T12:52:13;7.22;;;2.33;;
22476;SDS011;65006;51.698;-0.292;2023-05-02T12:54:39;4.93;;;1.60;;
22476;SDS011;65006;51.698;-0.292;2023-05-02T12:57:05;5.47;;;1.40;;
22476;SDS011;65006;51.698;-0.292;2023-05-02T12:59:32;8.05;;;1.50;;
22476;SDS011;65006;51.698;-0.292;2023-05-02T13:01:58;5.97;;;1.67;;
22476;SDS011;65006;51.698;-0.292;2023-05-02T13:04:38;2.35;;;1.65;;
22476;SDS011;65006;51.698;-0.292;2023-05-02T13:07:05;6.68;;;1.58;;
22476;SDS011;65006;51.698;-0.292;2023-05-02T13:09:31;2.60;;;1.65;;
22476;SDS011;65006;51.698;-0.292;2023-05-02T13:11:57;4.97;;;1.83;;
22476;SDS011;65006;51.698;-0.292;2023-05-02T13:14:24;4.30;;;1.80;;
22476;SDS011;65006;51.698;-0.292;2023-05-02T13:16:50;11.23;;;1.67;;
22476;SDS011;65006;51.698;-0.292;2023-05-02T13:19:17;6.13;;;2.20;;
22476;SDS011;65006;51.698;-0.292;2023-05-02T13:21:43;6.05;;;1.80;;
22476;SDS011;65006;51.698;-0.292;2023-05-02T13:24:09;3.42;;;1.23;;
22476;SDS011;65006;51.698;-0.292;2023-05-02T13:26:35;11.38;;;1.83;;
22476;SDS011;65006;51.698;-0.292;2023-05-02T13:29:01;5.03;;;1.40;;
22476;SDS011;65006;51.698;-0.292;2023-05-02T13:31:27;6.15;;;1.48;;
22476;SDS011;65006;51.698;-0.292;2023-05-02T13:33:53;8.85;;;1.73;;
22476;SDS011;65006;51.698;-0.292;2023-05-02T13:36:19;3.72;;;1.30;;
22476;SDS011;65006;51.698;-0.292;2023-05-02T13:38:45;4.47;;;1.83;;
22476;SDS011;65006;51.698;-0.292;2023-05-02T13:41:12;2.75;;;1.50;;
22476;SDS011;65006;51.698;-0.292;2023-05-02T13:43:38;4.78;;;1.52;;
22476;SDS011;65006;51.698;-0.292;2023-05-02T13:46:04;10.07;;;1.75;;
22476;SDS011;65006;51.698;-0.292;2023-05-02T13:48:30;6.15;;;1.40;;
22476;SDS011;65006;51.698;-0.292;2023-05-02T13:50:57;5.05;;;1.50;;
22476;SDS011;65006;51.698;-0.292;2023-05-02T13:53:23;1.45;;;0.90;;
22476;SDS011;65006;51.698;-0.292;2023-05-02T13:55:49;4.40;;;1.52;;
22476;SDS011;65006;51.698;-0.292;2023-05-02T13:58:15;7.10;;;1.55;;
22476;SDS011;65006;51.698;-0.292;2023-05-02T14:00:41;8.80;;;1.65;;
22476;SDS011;65006;51.698;-0.292;2023-05-02T14:03:07;6.00;;;1.10;;
22476;SDS011;65006;51.698;-0.292;2023-05-02T14:05:35;7.40;;;1.55;;
22476;SDS011;65006;51.698;-0.292;2023-05-02T14:08:01;5.50;;;1.90;;
22476;SDS011;65006;51.698;-0.292;2023-05-02T14:10:28;3.53;;;1.30;;
22476;SDS011;65006;51.698;-0.292;2023-05-02T14:12:54;6.18;;;1.42;;
22476;SDS011;65006;51.698;-0.292;2023-05-02T14:15:20;4.53;;;1.45;;
22476;SDS011;65006;51.698;-0.292;2023-05-02T14:17:47;8.10;;;2.50;;
22476;SDS011;65006;51.698;-0.292;2023-05-02T14:20:13;6.22;;;1.45;;
22476;SDS011;65006;51.698;-0.292;2023-05-02T14:22:40;4.97;;;1.58;;
22476;SDS011;65006;51.698;-0.292;2023-05-02T14:25:06;7.50;;;1.30;;
22476;SDS011;65006;51.698;-0.292;2023-05-02T14:27:32;8.98;;;1.83;;
22476;SDS011;65006;51.698;-0.292;2023-05-02T14:29:58;6.57;;;1.55;;
22476;SDS011;65006;51.698;-0.292;2023-05-02T14:32:24;6.28;;;1.40;;
22476;SDS011;65006;51.698;-0.292;2023-05-02T14:34:50;5.32;;;1.70;;
22476;SDS011;65006;51.698;-0.292;2023-05-02T14:37:16;6.78;;;2.72;;
22476;SDS011;65006;51.698;-0.292;2023-05-02T14:39:42;3.47;;;1.20;;
22476;SDS011;65006;51.698;-0.292;2023-05-02T14:42:09;3.88;;;1.48;;
22476;SDS011;65006;51.698;-0.292;2023-05-02T14:44:35;3.42;;;1.40;;
22476;SDS011;65006;51.698;-0.292;2023-05-02T14:47:01;4.53;;;1.67;;
22476;SDS011;65006;51.698;-0.292;2023-05-02T14:49:27;9.27;;;1.30;;
22476;SDS011;65006;51.698;-0.292;2023-05-02T14:51:53;9.00;;;1.63;;
22476;SDS011;65006;51.698;-0.292;2023-05-02T14:54:24;6.35;;;1.85;;
22476;SDS011;65006;51.698;-0.292;2023-05-02T14:56:50;6.57;;;1.63;;
22476;SDS011;65006;51.698;-0.292;2023-05-02T14:59:17;6.35;;;1.80;;
22476;SDS011;65006;51.698;-0.292;2023-05-02T15:01:43;3.53;;;1.35;;
22476;SDS011;65006;51.698;-0.292;2023-05-02T15:04:09;4.38;;;1.58;;
22476;SDS011;65006;51.698;-0.292;2023-05-02T15:06:35;6.65;;;1.42;;
22476;SDS011;65006;51.698;-0.292;2023-05-02T15:09:02;6.43;;;1.40;;
22476;SDS011;65006;51.698;-0.292;2023-05-02T15:13:54;5.93;;;1.40;;
22476;SDS011;65006;51.698;-0.292;2023-05-02T15:16:20;4.22;;;1.17;;
22476;SDS011;65006;51.698;-0.292;2023-05-02T15:18:46;5.22;;;1.42;;
22476;SDS011;65006;51.698;-0.292;2023-05-02T15:21:12;5.20;;;1.15;;
22476;SDS011;65006;51.698;-0.292;2023-05-02T15:23:38;2.70;;;1.35;;
22476;SDS011;65006;51.698;-0.292;2023-05-02T15:26:04;5.90;;;1.30;;
22476;SDS011;65006;51.698;-0.292;2023-05-02T15:28:30;4.28;;;1.30;;
22476;SDS011;65006;51.698;-0.292;2023-05-02T15:30:56;6.85;;;1.60;;
22476;SDS011;65006;51.698;-0.292;2023-05-02T15:33:22;4.55;;;1.23;;
22476;SDS011;65006;51.698;-0.292;2023-05-02T15:35:52;5.68;;;2.00;;
22476;SDS011;65006;51.698;-0.292;2023-05-02T15:38:19;6.22;;;1.73;;
22476;SDS011;65006;51.698;-0.292;2023-05-02T15:40:55;5.57;;;1.70;;
22476;SDS011;65006;51.698;-0.292;2023-05-02T15:43:21;5.28;;;1.40;;
22476;SDS011;65006;51.698;-0.292;2023-05-02T15:45:51;9.10;;;1.60;;
22476;SDS011;65006;51.698;-0.292;2023-05-02T15:48:17;8.63;;;1.35;;
22476;SDS011;65006;51.698;-0.292;2023-05-02T15:50:43;6.72;;;1.55;;
22476;SDS011;65006;51.698;-0.292;2023-05-02T15:53:09;6.70;;;1.48;;